sensor_id;sensor_type;location;lat;lon;timestamp;P1;durP1;ratioP1;P2;durP2;ratioP2
3329;SDS011;1677;49.576;10.990;2023-04-06T00:01:26;10.33;;;4.97;;
3329;SDS011;1677;49.576;10.990;2023-04-06T00:03:51;4.10;;;3.63;;
3329;SDS011;1677;49.576;10.990;2023-04-06T00:06:17;5.33;;;3.87;;
3329;SDS011;1677;49.576;10.990;2023-04-06T00:08:42;6.50;;;4.83;;
3329;SDS011;1677;49.576;10.990;2023-04-06T00:11:09;5.68;;;4.25;;
3329;SDS011;1677;49.576;10.990;2023-04-06T00:13:35;7.10;;;4.13;;
3329;SDS011;1677;49.576;10.990;2023-04-06T00:16:00;5.47;;;4.97;;
3329;SDS011;1677;49.576;10.990;2023-04-06T00:18:26;4.50;;;3.90;;
3329;SDS011;1677;49.576;10.990;2023-04-06T00:20:52;5.83;;;4.20;;
3329;SDS011;1677;49.576;10.990;2023-04-06T00:23:17;6.10;;;4.57;;
3329;SDS011;1677;49.576;10.990;2023-04-06T00:25:43;6.70;;;4.47;;
3329;SDS011;1677;49.576;10.990;2023-04-06T00:28:08;4.43;;;3.60;;
3329;SDS011;1677;49.576;10.990;2023-04-06T00:30:34;4.80;;;3.63;;
3329;SDS011;1677;49.576;10.990;2023-04-06T00:33:00;4.73;;;4.23;;
3329;SDS011;1677;49.576;10.990;2023-04-06T00:35:26;5.70;;;4.80;;
3329;SDS011;1677;49.576;10.990;2023-04-06T00:37:51;6.80;;;4.20;;
3329;SDS011;1677;49.576;10.990;2023-04-06T00:40:17;4.40;;;4.00;;
3329;SDS011;1677;49.576;10.990;2023-04-06T00:42:43;4.67;;;4.00;;
3329;SDS011;1677;49.576;10.990;2023-04-06T00:45:09;3.47;;;3.17;;
3329;SDS011;1677;49.576;10.990;2023-04-06T00:47:35;6.88;;;4.18;;
3329;SDS011;1677;49.576;10.990;2023-04-06T00:50:01;4.83;;;4.37;;
3329;SDS011;1677;49.576;10.990;2023-04-06T00:52:27;6.63;;;5.20;;
3329;SDS011;1677;49.576;10.990;2023-04-06T00:54:53;7.17;;;4.60;;
3329;SDS011;1677;49.576;10.990;2023-04-06T00:57:18;4.60;;;3.60;;
3329;SDS011;1677;49.576;10.990;2023-04-06T00:59:44;4.97;;;3.90;;
3329;SDS011;1677;49.576;10.990;2023-04-06T01:02:11;8.38;;;4.60;;
3329;SDS011;1677;49.576;10.990;2023-04-06T01:04:36;6.27;;;4.23;;
3329;SDS011;1677;49.576;10.990;2023-04-06T01:07:02;4.87;;;4.30;;
3329;SDS011;1677;49.576;10.990;2023-04-06T01:09:28;7.40;;;4.53;;
3329;SDS011;1677;49.576;10.990;2023-04-06T01:11:55;4.28;;;3.88;;
3329;SDS011;1677;49.576;10.990;2023-04-06T01:14:21;5.18;;;3.58;;
3329;SDS011;1677;49.576;10.990;2023-04-06T01:16:47;5.80;;;3.97;;
3329;SDS011;1677;49.576;10.990;2023-04-06T01:19:13;4.10;;;3.73;;
3329;SDS011;1677;49.576;10.990;2023-04-06T01:21:39;4.13;;;3.73;;
3329;SDS011;1677;49.576;10.990;2023-04-06T01:24:06;7.25;;;4.55;;
3329;SDS011;1677;49.576;10.990;2023-04-06T01:26:32;5.95;;;3.72;;
3329;SDS011;1677;49.576;10.990;2023-04-06T01:28:59;4.50;;;4.10;;
3329;SDS011;1677;49.576;10.990;2023-04-06T01:31:25;4.88;;;4.15;;
3329;SDS011;1677;49.576;10.990;2023-04-06T01:33:52;4.88;;;4.25;;
3329;SDS011;1677;49.576;10.990;2023-04-06T01:36:17;4.67;;;4.27;;
3329;SDS011;1677;49.576;10.990;2023-04-06T01:38:43;3.97;;;3.60;;
3329;SDS011;1677;49.576;10.990;2023-04-06T01:41:09;5.30;;;4.13;;
3329;SDS011;1677;49.576;10.990;2023-04-06T01:43:35;6.40;;;4.40;;
3329;SDS011;1677;49.576;10.990;2023-04-06T01:46:01;5.30;;;4.53;;
3329;SDS011;1677;49.576;10.990;2023-04-06T01:48:26;6.77;;;3.70;;
3329;SDS011;1677;49.576;10.990;2023-04-06T01:50:53;4.30;;;3.90;;
3329;SDS011;1677;49.576;10.990;2023-04-06T01:53:18;5.90;;;3.35;;
3329;SDS011;1677;49.576;10.990;2023-04-06T01:55:44;4.87;;;3.67;;
3329;SDS011;1677;49.576;10.990;2023-04-06T01:58:10;4.17;;;3.77;;
3329;SDS011;1677;49.576;10.990;2023-04-06T02:00:36;3.80;;;3.40;;
3329;SDS011;1677;49.576;10.990;2023-04-06T02:03:02;5.33;;;4.10;;
3329;SDS011;1677;49.576;10.990;2023-04-06T02:05:29;4.63;;;3.87;;
3329;SDS011;1677;49.576;10.990;2023-04-06T02:07:55;5.20;;;3.65;;
3329;SDS011;1677;49.576;10.990;2023-04-06T02:10:21;5.55;;;4.10;;
3329;SDS011;1677;49.576;10.990;2023-04-06T02:12:47;5.93;;;3.67;;
3329;SDS011;1677;49.576;10.990;2023-04-06T02:15:13;4.25;;;3.60;;
3329;SDS011;1677;49.576;10.990;2023-04-06T02:17:40;4.78;;;4.20;;
3329;SDS011;1677;49.576;10.990;2023-04-06T02:20:06;5.90;;;4.25;;
3329;SDS011;1677;49.576;10.990;2023-04-06T02:22:32;4.35;;;3.95;;
3329;SDS011;1677;49.576;10.990;2023-04-06T02:24:58;8.10;;;5.40;;
3329;SDS011;1677;49.576;10.990;2023-04-06T02:27:24;4.90;;;4.30;;
3329;SDS011;1677;49.576;10.990;2023-04-06T02:29:49;4.47;;;3.87;;
3329;SDS011;1677;49.576;10.990;2023-04-06T02:32:15;6.20;;;4.40;;
3329;SDS011;1677;49.576;10.990;2023-04-06T02:34:41;4.87;;;4.00;;
3329;SDS011;1677;49.576;10.990;2023-04-06T02:37:06;4.13;;;3.83;;
3329;SDS011;1677;49.576;10.990;2023-04-06T02:39:32;5.00;;;4.50;;
3329;SDS011;1677;49.576;10.990;2023-04-06T02:41:57;4.97;;;4.37;;
3329;SDS011;1677;49.576;10.990;2023-04-06T02:44:23;5.93;;;4.30;;
3329;SDS011;1677;49.576;10.990;2023-04-06T02:46:48;6.57;;;4.60;;
3329;SDS011;1677;49.576;10.990;2023-04-06T02:49:15;6.68;;;4.25;;
3329;SDS011;1677;49.576;10.990;2023-04-06T02:51:40;4.00;;;3.20;;
3329;SDS011;1677;49.576;10.990;2023-04-06T02:54:06;4.80;;;4.20;;
3329;SDS011;1677;49.576;10.990;2023-04-06T02:56:32;5.00;;;4.10;;
3329;SDS011;1677;49.576;10.990;2023-04-06T02:58:57;5.63;;;4.30;;
3329;SDS011;1677;49.576;10.990;2023-04-06T03:01:23;4.60;;;3.60;;
3329;SDS011;1677;49.576;10.990;2023-04-06T03:03:48;5.40;;;4.90;;
3329;SDS011;1677;49.576;10.990;2023-04-06T03:06:14;4.80;;;4.07;;
3329;SDS011;1677;49.576;10.990;2023-04-06T03:08:39;4.83;;;4.30;;
3329;SDS011;1677;49.576;10.990;2023-04-06T03:11:05;4.60;;;4.03;;
3329;SDS011;1677;49.576;10.990;2023-04-06T03:13:31;4.87;;;4.30;;
3329;SDS011;1677;49.576;10.990;2023-04-06T03:15:56;6.70;;;5.67;;
3329;SDS011;1677;49.576;10.990;2023-04-06T03:18:22;6.17;;;5.43;;
3329;SDS011;1677;49.576;10.990;2023-04-06T03:20:50;5.30;;;4.80;;
3329;SDS011;1677;49.576;10.990;2023-04-06T03:23:16;6.50;;;5.05;;
3329;SDS011;1677;49.576;10.990;2023-04-06T03:25:42;6.93;;;4.73;;
3329;SDS011;1677;49.576;10.990;2023-04-06T03:28:07;6.60;;;4.80;;
3329;SDS011;1677;49.576;10.990;2023-04-06T03:30:33;6.50;;;4.80;;
3329;SDS011;1677;49.576;10.990;2023-04-06T03:32:59;6.38;;;5.30;;
3329;SDS011;1677;49.576;10.990;2023-04-06T03:35:25;14.27;;;4.97;;
3329;SDS011;1677;49.576;10.990;2023-04-06T03:37:50;4.90;;;4.30;;
3329;SDS011;1677;49.576;10.990;2023-04-06T03:40:16;5.87;;;4.10;;
3329;SDS011;1677;49.576;10.990;2023-04-06T03:42:42;7.33;;;4.97;;
3329;SDS011;1677;49.576;10.990;2023-04-06T03:45:07;7.63;;;4.27;;
3329;SDS011;1677;49.576;10.990;2023-04-06T03:47:33;5.47;;;4.17;;
3329;SDS011;1677;49.576;10.990;2023-04-06T03:49:59;5.87;;;3.93;;
3329;SDS011;1677;49.576;10.990;2023-04-06T03:52:25;4.73;;;4.10;;
3329;SDS011;1677;49.576;10.990;2023-04-06T03:54:51;5.22;;;4.35;;
3329;SDS011;1677;49.576;10.990;2023-04-06T03:57:17;7.60;;;4.43;;
3329;SDS011;1677;49.576;10.990;2023-04-06T03:59:42;5.27;;;4.43;;
3329;SDS011;1677;49.576;10.990;2023-04-06T04:02:08;6.53;;;4.50;;
3329;SDS011;1677;49.576;10.990;2023-04-06T04:04:33;5.03;;;4.53;;
3329;SDS011;1677;49.576;10.990;2023-04-06T04:06:59;7.10;;;4.10;;
3329;SDS011;1677;49.576;10.990;2023-04-06T04:09:24;5.40;;;4.57;;
3329;SDS011;1677;49.576;10.990;2023-04-06T04:11:50;6.17;;;4.47;;
3329;SDS011;1677;49.576;10.990;2023-04-06T04:14:16;3.80;;;3.50;;
3329;SDS011;1677;49.576;10.990;2023-04-06T04:16:41;4.83;;;3.90;;
3329;SDS011;1677;49.576;10.990;2023-04-06T04:19:07;4.83;;;3.83;;
3329;SDS011;1677;49.576;10.990;2023-04-06T04:21:33;10.63;;;4.20;;
3329;SDS011;1677;49.576;10.990;2023-04-06T04:23:58;6.37;;;4.40;;
3329;SDS011;1677;49.576;10.990;2023-04-06T04:26:24;4.20;;;3.80;;
3329;SDS011;1677;49.576;10.990;2023-04-06T04:28:50;4.53;;;3.67;;
3329;SDS011;1677;49.576;10.990;2023-04-06T04:31:15;5.90;;;4.10;;
3329;SDS011;1677;49.576;10.990;2023-04-06T04:33:43;4.43;;;3.95;;
3329;SDS011;1677;49.576;10.990;2023-04-06T04:36:09;4.40;;;3.70;;
3329;SDS011;1677;49.576;10.990;2023-04-06T04:38:35;7.88;;;4.38;;
3329;SDS011;1677;49.576;10.990;2023-04-06T04:41:00;4.80;;;4.33;;
3329;SDS011;1677;49.576;10.990;2023-04-06T04:43:26;6.83;;;4.43;;
3329;SDS011;1677;49.576;10.990;2023-04-06T04:45:52;6.07;;;3.93;;
3329;SDS011;1677;49.576;10.990;2023-04-06T04:48:17;5.23;;;4.70;;
3329;SDS011;1677;49.576;10.990;2023-04-06T04:50:43;5.67;;;4.20;;
3329;SDS011;1677;49.576;10.990;2023-04-06T04:53:08;4.27;;;3.87;;
3329;SDS011;1677;49.576;10.990;2023-04-06T04:55:34;6.53;;;3.70;;
3329;SDS011;1677;49.576;10.990;2023-04-06T04:58:00;6.25;;;4.35;;
3329;SDS011;1677;49.576;10.990;2023-04-06T05:00:27;5.65;;;4.00;;
3329;SDS011;1677;49.576;10.990;2023-04-06T05:02:52;4.60;;;3.97;;
3329;SDS011;1677;49.576;10.990;2023-04-06T05:05:18;6.30;;;4.67;;
3329;SDS011;1677;49.576;10.990;2023-04-06T05:07:44;4.47;;;3.80;;
3329;SDS011;1677;49.576;10.990;2023-04-06T05:10:09;5.03;;;4.53;;
3329;SDS011;1677;49.576;10.990;2023-04-06T05:12:35;5.40;;;4.47;;
3329;SDS011;1677;49.576;10.990;2023-04-06T05:15:00;7.40;;;4.37;;
3329;SDS011;1677;49.576;10.990;2023-04-06T05:17:26;6.33;;;4.47;;
3329;SDS011;1677;49.576;10.990;2023-04-06T05:19:52;7.20;;;4.37;;
3329;SDS011;1677;49.576;10.990;2023-04-06T05:22:17;5.10;;;4.70;;
3329;SDS011;1677;49.576;10.990;2023-04-06T05:24:43;5.80;;;4.20;;
3329;SDS011;1677;49.576;10.990;2023-04-06T05:27:09;6.50;;;5.00;;
3329;SDS011;1677;49.576;10.990;2023-04-06T05:29:35;9.63;;;4.97;;
3329;SDS011;1677;49.576;10.990;2023-04-06T05:32:01;4.83;;;4.43;;
3329;SDS011;1677;49.576;10.990;2023-04-06T05:34:26;7.60;;;5.70;;
3329;SDS011;1677;49.576;10.990;2023-04-06T05:36:52;5.87;;;4.87;;
3329;SDS011;1677;49.576;10.990;2023-04-06T05:39:18;5.67;;;4.50;;
3329;SDS011;1677;49.576;10.990;2023-04-06T05:41:44;8.80;;;5.00;;
3329;SDS011;1677;49.576;10.990;2023-04-06T05:44:10;6.67;;;4.80;;
3329;SDS011;1677;49.576;10.990;2023-04-06T05:46:35;6.80;;;4.37;;
3329;SDS011;1677;49.576;10.990;2023-04-06T05:49:01;8.07;;;5.20;;
3329;SDS011;1677;49.576;10.990;2023-04-06T05:51:27;6.60;;;5.03;;
3329;SDS011;1677;49.576;10.990;2023-04-06T05:53:52;5.37;;;4.90;;
3329;SDS011;1677;49.576;10.990;2023-04-06T05:56:18;6.30;;;4.80;;
3329;SDS011;1677;49.576;10.990;2023-04-06T05:58:43;7.30;;;5.20;;
3329;SDS011;1677;49.576;10.990;2023-04-06T06:01:09;8.00;;;6.50;;
3329;SDS011;1677;49.576;10.990;2023-04-06T06:03:35;12.52;;;8.07;;
3329;SDS011;1677;49.576;10.990;2023-04-06T06:06:01;8.63;;;6.27;;
3329;SDS011;1677;49.576;10.990;2023-04-06T06:08:28;8.65;;;6.65;;
3329;SDS011;1677;49.576;10.990;2023-04-06T06:10:54;7.30;;;6.03;;
3329;SDS011;1677;49.576;10.990;2023-04-06T06:13:20;11.73;;;6.40;;
3329;SDS011;1677;49.576;10.990;2023-04-06T06:15:46;8.53;;;6.60;;
3329;SDS011;1677;49.576;10.990;2023-04-06T06:18:11;11.10;;;6.20;;
3329;SDS011;1677;49.576;10.990;2023-04-06T06:20:37;6.73;;;5.10;;
3329;SDS011;1677;49.576;10.990;2023-04-06T06:23:02;7.70;;;4.63;;
3329;SDS011;1677;49.576;10.990;2023-04-06T06:25:28;9.03;;;5.60;;
3329;SDS011;1677;49.576;10.990;2023-04-06T06:27:55;5.38;;;4.88;;
3329;SDS011;1677;49.576;10.990;2023-04-06T06:30:22;7.25;;;5.30;;
3329;SDS011;1677;49.576;10.990;2023-04-06T06:32:47;5.77;;;4.67;;
3329;SDS011;1677;49.576;10.990;2023-04-06T06:35:15;8.20;;;5.35;;
3329;SDS011;1677;49.576;10.990;2023-04-06T06:37:40;6.43;;;5.10;;
3329;SDS011;1677;49.576;10.990;2023-04-06T06:40:06;5.70;;;5.10;;
3329;SDS011;1677;49.576;10.990;2023-04-06T06:42:33;6.85;;;4.97;;
3329;SDS011;1677;49.576;10.990;2023-04-06T06:44:59;8.00;;;5.47;;
3329;SDS011;1677;49.576;10.990;2023-04-06T06:47:24;9.87;;;5.23;;
3329;SDS011;1677;49.576;10.990;2023-04-06T06:49:51;8.00;;;5.18;;
3329;SDS011;1677;49.576;10.990;2023-04-06T06:52:16;10.20;;;5.73;;
3329;SDS011;1677;49.576;10.990;2023-04-06T06:54:42;8.83;;;5.67;;
3329;SDS011;1677;49.576;10.990;2023-04-06T06:57:08;8.52;;;5.20;;
3329;SDS011;1677;49.576;10.990;2023-04-06T06:59:34;7.87;;;5.50;;
3329;SDS011;1677;49.576;10.990;2023-04-06T07:01:59;6.00;;;5.40;;
3329;SDS011;1677;49.576;10.990;2023-04-06T07:04:25;7.80;;;5.20;;
3329;SDS011;1677;49.576;10.990;2023-04-06T07:06:51;5.43;;;4.93;;
3329;SDS011;1677;49.576;10.990;2023-04-06T07:09:17;10.90;;;5.47;;
3329;SDS011;1677;49.576;10.990;2023-04-06T07:11:43;7.13;;;5.20;;
3329;SDS011;1677;49.576;10.990;2023-04-06T07:14:09;9.13;;;5.30;;
3329;SDS011;1677;49.576;10.990;2023-04-06T07:16:36;7.97;;;4.40;;
3329;SDS011;1677;49.576;10.990;2023-04-06T07:19:02;7.63;;;5.10;;
3329;SDS011;1677;49.576;10.990;2023-04-06T07:21:27;9.57;;;5.83;;
3329;SDS011;1677;49.576;10.990;2023-04-06T07:23:53;7.53;;;5.37;;
3329;SDS011;1677;49.576;10.990;2023-04-06T07:26:18;7.33;;;5.33;;
3329;SDS011;1677;49.576;10.990;2023-04-06T07:28:45;7.53;;;5.60;;
3329;SDS011;1677;49.576;10.990;2023-04-06T07:31:10;6.83;;;5.33;;
3329;SDS011;1677;49.576;10.990;2023-04-06T07:33:36;5.30;;;4.77;;
3329;SDS011;1677;49.576;10.990;2023-04-06T07:36:01;5.70;;;5.10;;
3329;SDS011;1677;49.576;10.990;2023-04-06T07:38:27;9.07;;;5.83;;
3329;SDS011;1677;49.576;10.990;2023-04-06T07:40:53;8.23;;;5.37;;
3329;SDS011;1677;49.576;10.990;2023-04-06T07:43:18;9.30;;;7.10;;
3329;SDS011;1677;49.576;10.990;2023-04-06T07:45:44;6.40;;;5.20;;
3329;SDS011;1677;49.576;10.990;2023-04-06T07:48:10;7.53;;;6.83;;
3329;SDS011;1677;49.576;10.990;2023-04-06T07:50:35;7.60;;;6.47;;
3329;SDS011;1677;49.576;10.990;2023-04-06T07:53:01;7.70;;;6.20;;
3329;SDS011;1677;49.576;10.990;2023-04-06T07:55:27;10.13;;;6.97;;
3329;SDS011;1677;49.576;10.990;2023-04-06T07:57:53;9.07;;;6.80;;
3329;SDS011;1677;49.576;10.990;2023-04-06T08:00:19;7.93;;;5.90;;
3329;SDS011;1677;49.576;10.990;2023-04-06T08:02:45;7.33;;;6.53;;
3329;SDS011;1677;49.576;10.990;2023-04-06T08:05:10;12.10;;;6.87;;
3329;SDS011;1677;49.576;10.990;2023-04-06T08:07:36;9.33;;;6.63;;
3329;SDS011;1677;49.576;10.990;2023-04-06T08:10:02;10.20;;;7.40;;
3329;SDS011;1677;49.576;10.990;2023-04-06T08:12:27;10.50;;;7.33;;
3329;SDS011;1677;49.576;10.990;2023-04-06T08:14:53;8.70;;;7.43;;
3329;SDS011;1677;49.576;10.990;2023-04-06T08:17:19;10.80;;;7.10;;
3329;SDS011;1677;49.576;10.990;2023-04-06T08:19:45;8.57;;;6.30;;
3329;SDS011;1677;49.576;10.990;2023-04-06T08:22:10;7.00;;;6.30;;
3329;SDS011;1677;49.576;10.990;2023-04-06T08:24:36;9.20;;;6.80;;
3329;SDS011;1677;49.576;10.990;2023-04-06T08:27:02;7.87;;;7.07;;
3329;SDS011;1677;49.576;10.990;2023-04-06T08:29:28;8.07;;;6.90;;
3329;SDS011;1677;49.576;10.990;2023-04-06T08:31:53;9.10;;;7.40;;
3329;SDS011;1677;49.576;10.990;2023-04-06T08:34:20;8.97;;;7.27;;
3329;SDS011;1677;49.576;10.990;2023-04-06T08:36:46;8.83;;;7.93;;
3329;SDS011;1677;49.576;10.990;2023-04-06T08:39:12;8.30;;;7.20;;
3329;SDS011;1677;49.576;10.990;2023-04-06T08:41:38;8.10;;;6.90;;
3329;SDS011;1677;49.576;10.990;2023-04-06T08:44:06;8.70;;;7.80;;
3329;SDS011;1677;49.576;10.990;2023-04-06T08:46:31;10.20;;;8.67;;
3329;SDS011;1677;49.576;10.990;2023-04-06T08:48:58;10.90;;;8.17;;
3329;SDS011;1677;49.576;10.990;2023-04-06T08:51:25;9.20;;;7.73;;
3329;SDS011;1677;49.576;10.990;2023-04-06T08:53:52;10.20;;;8.60;;
3329;SDS011;1677;49.576;10.990;2023-04-06T08:56:22;8.73;;;7.40;;
3329;SDS011;1677;49.576;10.990;2023-04-06T08:58:48;8.70;;;7.30;;
3329;SDS011;1677;49.576;10.990;2023-04-06T09:01:14;9.83;;;8.83;;
3329;SDS011;1677;49.576;10.990;2023-04-06T09:03:44;8.73;;;7.83;;
3329;SDS011;1677;49.576;10.990;2023-04-06T09:06:11;10.80;;;8.30;;
3329;SDS011;1677;49.576;10.990;2023-04-06T09:08:39;9.33;;;7.70;;
3329;SDS011;1677;49.576;10.990;2023-04-06T09:11:06;8.70;;;7.80;;
3329;SDS011;1677;49.576;10.990;2023-04-06T09:14:15;9.30;;;8.30;;
3329;SDS011;1677;49.576;10.990;2023-04-06T09:16:22;10.53;;;7.90;;
3329;SDS011;1677;49.576;10.990;2023-04-06T09:18:48;9.93;;;8.00;;
3329;SDS011;1677;49.576;10.990;2023-04-06T09:21:19;6.67;;;6.07;;
3329;SDS011;1677;49.576;10.990;2023-04-06T09:23:45;7.73;;;6.77;;
3329;SDS011;1677;49.576;10.990;2023-04-06T09:26:16;8.73;;;6.90;;
3329;SDS011;1677;49.576;10.990;2023-04-06T09:31:22;7.50;;;6.80;;
3329;SDS011;1677;49.576;10.990;2023-04-06T09:33:49;10.50;;;7.60;;
3329;SDS011;1677;49.576;10.990;2023-04-06T09:36:15;10.63;;;7.07;;
3329;SDS011;1677;49.576;10.990;2023-04-06T09:39:00;7.00;;;6.30;;
3329;SDS011;1677;49.576;10.990;2023-04-06T09:44:10;7.53;;;6.67;;
3329;SDS011;1677;49.576;10.990;2023-04-06T09:46:41;8.40;;;7.67;;
3329;SDS011;1677;49.576;10.990;2023-04-06T09:49:08;7.10;;;6.40;;
3329;SDS011;1677;49.576;10.990;2023-04-06T09:51:38;8.13;;;7.43;;
3329;SDS011;1677;49.576;10.990;2023-04-06T09:54:25;8.13;;;7.33;;
3329;SDS011;1677;49.576;10.990;2023-04-06T10:02:15;8.63;;;7.90;;
3329;SDS011;1677;49.576;10.990;2023-04-06T10:04:53;11.97;;;7.90;;
3329;SDS011;1677;49.576;10.990;2023-04-06T10:07:30;8.13;;;7.10;;
3329;SDS011;1677;49.576;10.990;2023-04-06T10:09:56;8.30;;;7.40;;
3329;SDS011;1677;49.576;10.990;2023-04-06T10:12:25;8.70;;;7.80;;
3329;SDS011;1677;49.576;10.990;2023-04-06T10:14:51;9.20;;;6.60;;
3329;SDS011;1677;49.576;10.990;2023-04-06T10:17:17;9.03;;;8.13;;
3329;SDS011;1677;49.576;10.990;2023-04-06T10:25:28;8.67;;;7.80;;
3329;SDS011;1677;49.576;10.990;2023-04-06T10:28:02;9.50;;;7.30;;
3329;SDS011;1677;49.576;10.990;2023-04-06T10:30:34;9.13;;;8.27;;
3329;SDS011;1677;49.576;10.990;2023-04-06T10:33:12;7.93;;;7.13;;
3329;SDS011;1677;49.576;10.990;2023-04-06T10:35:39;8.63;;;7.53;;
3329;SDS011;1677;49.576;10.990;2023-04-06T10:38:04;9.20;;;7.23;;
3329;SDS011;1677;49.576;10.990;2023-04-06T10:40:30;9.40;;;8.50;;
3329;SDS011;1677;49.576;10.990;2023-04-06T10:43:06;8.53;;;7.73;;
3329;SDS011;1677;49.576;10.990;2023-04-06T10:45:37;7.90;;;7.10;;
3329;SDS011;1677;49.576;10.990;2023-04-06T10:48:16;7.70;;;7.00;;
3329;SDS011;1677;49.576;10.990;2023-04-06T10:50:49;7.50;;;6.80;;
3329;SDS011;1677;49.576;10.990;2023-04-06T10:53:22;10.87;;;7.50;;
3329;SDS011;1677;49.576;10.990;2023-04-06T10:55:49;9.40;;;7.33;;
3329;SDS011;1677;49.576;10.990;2023-04-06T10:58:25;9.13;;;8.20;;
3329;SDS011;1677;49.576;10.990;2023-04-06T11:00:51;8.80;;;7.90;;
3329;SDS011;1677;49.576;10.990;2023-04-06T11:03:18;9.10;;;6.80;;
3329;SDS011;1677;49.576;10.990;2023-04-06T11:05:47;8.40;;;7.60;;
3329;SDS011;1677;49.576;10.990;2023-04-06T11:08:28;9.10;;;6.93;;
3329;SDS011;1677;49.576;10.990;2023-04-06T11:11:05;8.10;;;7.30;;
3329;SDS011;1677;49.576;10.990;2023-04-06T11:13:38;8.87;;;7.53;;
3329;SDS011;1677;49.576;10.990;2023-04-06T11:16:13;6.90;;;6.20;;
3329;SDS011;1677;49.576;10.990;2023-04-06T11:18:48;7.63;;;6.83;;
3329;SDS011;1677;49.576;10.990;2023-04-06T11:24:18;7.67;;;6.97;;
3329;SDS011;1677;49.576;10.990;2023-04-06T11:26:49;9.77;;;7.90;;
3329;SDS011;1677;49.576;10.990;2023-04-06T11:29:19;8.40;;;7.23;;
3329;SDS011;1677;49.576;10.990;2023-04-06T11:31:51;7.80;;;7.10;;
3329;SDS011;1677;49.576;10.990;2023-04-06T11:34:22;8.17;;;7.37;;
3329;SDS011;1677;49.576;10.990;2023-04-06T11:36:49;7.43;;;6.77;;
3329;SDS011;1677;49.576;10.990;2023-04-06T11:39:26;8.40;;;7.63;;
3329;SDS011;1677;49.576;10.990;2023-04-06T11:41:54;8.00;;;7.20;;
3329;SDS011;1677;49.576;10.990;2023-04-06T11:44:29;8.80;;;7.90;;
3329;SDS011;1677;49.576;10.990;2023-04-06T11:46:58;10.30;;;8.10;;
3329;SDS011;1677;49.576;10.990;2023-04-06T11:49:28;9.80;;;8.23;;
3329;SDS011;1677;49.576;10.990;2023-04-06T11:51:55;8.00;;;6.77;;
3329;SDS011;1677;49.576;10.990;2023-04-06T11:54:31;9.50;;;8.57;;
3329;SDS011;1677;49.576;10.990;2023-04-06T11:56:58;8.87;;;7.97;;
3329;SDS011;1677;49.576;10.990;2023-04-06T11:59:25;11.03;;;8.67;;
3329;SDS011;1677;49.576;10.990;2023-04-06T12:01:52;8.60;;;7.77;;
3329;SDS011;1677;49.576;10.990;2023-04-06T12:04:18;8.53;;;7.57;;
3329;SDS011;1677;49.576;10.990;2023-04-06T12:06:44;7.77;;;6.63;;
3329;SDS011;1677;49.576;10.990;2023-04-06T12:09:10;8.60;;;7.80;;
3329;SDS011;1677;49.576;10.990;2023-04-06T12:11:35;8.30;;;6.60;;
3329;SDS011;1677;49.576;10.990;2023-04-06T12:14:01;10.03;;;7.70;;
3329;SDS011;1677;49.576;10.990;2023-04-06T12:16:29;7.93;;;7.07;;
3329;SDS011;1677;49.576;10.990;2023-04-06T12:18:55;8.30;;;7.57;;
3329;SDS011;1677;49.576;10.990;2023-04-06T12:21:21;11.30;;;7.50;;
3329;SDS011;1677;49.576;10.990;2023-04-06T12:23:47;11.23;;;6.73;;
3329;SDS011;1677;49.576;10.990;2023-04-06T12:26:12;8.30;;;7.13;;
3329;SDS011;1677;49.576;10.990;2023-04-06T12:28:38;8.80;;;7.30;;
3329;SDS011;1677;49.576;10.990;2023-04-06T12:31:03;10.37;;;7.57;;
3329;SDS011;1677;49.576;10.990;2023-04-06T12:33:29;7.80;;;7.03;;
3329;SDS011;1677;49.576;10.990;2023-04-06T12:35:55;8.43;;;7.53;;
3329;SDS011;1677;49.576;10.990;2023-04-06T12:38:21;10.13;;;7.50;;
3329;SDS011;1677;49.576;10.990;2023-04-06T12:40:47;9.37;;;8.03;;
3329;SDS011;1677;49.576;10.990;2023-04-06T12:43:12;7.70;;;7.00;;
3329;SDS011;1677;49.576;10.990;2023-04-06T12:45:38;8.60;;;7.60;;
3329;SDS011;1677;49.576;10.990;2023-04-06T12:48:05;8.80;;;7.73;;
3329;SDS011;1677;49.576;10.990;2023-04-06T12:50:31;9.60;;;7.70;;
3329;SDS011;1677;49.576;10.990;2023-04-06T12:52:57;7.87;;;7.03;;
3329;SDS011;1677;49.576;10.990;2023-04-06T12:55:22;11.60;;;8.07;;
3329;SDS011;1677;49.576;10.990;2023-04-06T12:57:48;8.87;;;7.40;;
3329;SDS011;1677;49.576;10.990;2023-04-06T13:00:13;7.23;;;6.50;;
3329;SDS011;1677;49.576;10.990;2023-04-06T13:02:39;9.73;;;6.60;;
3329;SDS011;1677;49.576;10.990;2023-04-06T13:05:11;9.37;;;7.70;;
3329;SDS011;1677;49.576;10.990;2023-04-06T13:07:37;7.40;;;6.80;;
3329;SDS011;1677;49.576;10.990;2023-04-06T13:10:03;8.80;;;6.73;;
3329;SDS011;1677;49.576;10.990;2023-04-06T13:12:29;10.17;;;6.83;;
3329;SDS011;1677;49.576;10.990;2023-04-06T13:14:55;8.50;;;7.33;;
3329;SDS011;1677;49.576;10.990;2023-04-06T13:17:21;8.43;;;6.03;;
3329;SDS011;1677;49.576;10.990;2023-04-06T13:19:47;11.10;;;7.10;;
3329;SDS011;1677;49.576;10.990;2023-04-06T13:22:13;7.97;;;7.17;;
3329;SDS011;1677;49.576;10.990;2023-04-06T13:24:38;8.00;;;6.50;;
3329;SDS011;1677;49.576;10.990;2023-04-06T13:27:04;8.70;;;7.80;;
3329;SDS011;1677;49.576;10.990;2023-04-06T13:29:30;7.10;;;6.50;;
3329;SDS011;1677;49.576;10.990;2023-04-06T13:31:55;10.93;;;7.33;;
3329;SDS011;1677;49.576;10.990;2023-04-06T13:34:21;8.13;;;7.07;;
3329;SDS011;1677;49.576;10.990;2023-04-06T13:36:47;7.43;;;6.73;;
3329;SDS011;1677;49.576;10.990;2023-04-06T13:39:12;8.93;;;8.03;;
3329;SDS011;1677;49.576;10.990;2023-04-06T13:41:38;8.30;;;6.57;;
3329;SDS011;1677;49.576;10.990;2023-04-06T13:44:05;8.50;;;7.27;;
3329;SDS011;1677;49.576;10.990;2023-04-06T13:46:30;6.90;;;6.30;;
3329;SDS011;1677;49.576;10.990;2023-04-06T13:48:57;6.80;;;6.20;;
3329;SDS011;1677;49.576;10.990;2023-04-06T13:51:22;8.90;;;6.97;;
3329;SDS011;1677;49.576;10.990;2023-04-06T13:53:48;7.33;;;6.63;;
3329;SDS011;1677;49.576;10.990;2023-04-06T13:56:17;7.90;;;7.13;;
3329;SDS011;1677;49.576;10.990;2023-04-06T13:58:43;13.60;;;7.20;;
3329;SDS011;1677;49.576;10.990;2023-04-06T14:01:08;7.23;;;6.13;;
3329;SDS011;1677;49.576;10.990;2023-04-06T14:03:34;8.10;;;5.57;;
3329;SDS011;1677;49.576;10.990;2023-04-06T14:06:00;10.07;;;6.63;;
3329;SDS011;1677;49.576;10.990;2023-04-06T14:08:26;6.60;;;5.93;;
3329;SDS011;1677;49.576;10.990;2023-04-06T14:10:52;8.57;;;6.83;;
3329;SDS011;1677;49.576;10.990;2023-04-06T14:13:19;7.47;;;6.67;;
3329;SDS011;1677;49.576;10.990;2023-04-06T14:15:44;7.50;;;6.77;;
3329;SDS011;1677;49.576;10.990;2023-04-06T14:18:10;10.47;;;7.50;;
3329;SDS011;1677;49.576;10.990;2023-04-06T14:20:36;6.93;;;6.23;;
3329;SDS011;1677;49.576;10.990;2023-04-06T14:23:02;8.67;;;6.97;;
3329;SDS011;1677;49.576;10.990;2023-04-06T14:25:28;8.47;;;7.67;;
3329;SDS011;1677;49.576;10.990;2023-04-06T14:27:56;6.77;;;6.07;;
3329;SDS011;1677;49.576;10.990;2023-04-06T14:30:22;5.93;;;5.30;;
3329;SDS011;1677;49.576;10.990;2023-04-06T14:32:47;7.17;;;5.93;;
3329;SDS011;1677;49.576;10.990;2023-04-06T14:35:13;7.07;;;6.30;;
3329;SDS011;1677;49.576;10.990;2023-04-06T14:37:38;9.33;;;6.60;;
3329;SDS011;1677;49.576;10.990;2023-04-06T14:40:04;7.80;;;6.80;;
3329;SDS011;1677;49.576;10.990;2023-04-06T14:42:30;9.23;;;6.50;;
3329;SDS011;1677;49.576;10.990;2023-04-06T14:44:56;7.63;;;6.67;;
3329;SDS011;1677;49.576;10.990;2023-04-06T14:47:22;7.53;;;6.83;;
3329;SDS011;1677;49.576;10.990;2023-04-06T14:49:50;7.93;;;6.63;;
3329;SDS011;1677;49.576;10.990;2023-04-06T14:52:16;7.03;;;6.33;;
3329;SDS011;1677;49.576;10.990;2023-04-06T14:54:41;7.60;;;6.90;;
3329;SDS011;1677;49.576;10.990;2023-04-06T14:57:07;9.33;;;5.83;;
3329;SDS011;1677;49.576;10.990;2023-04-06T14:59:33;8.33;;;7.13;;
3329;SDS011;1677;49.576;10.990;2023-04-06T15:01:58;7.77;;;6.20;;
3329;SDS011;1677;49.576;10.990;2023-04-06T15:04:27;7.63;;;6.90;;
3329;SDS011;1677;49.576;10.990;2023-04-06T15:06:53;7.13;;;6.43;;
3329;SDS011;1677;49.576;10.990;2023-04-06T15:09:19;8.27;;;7.13;;
3329;SDS011;1677;49.576;10.990;2023-04-06T15:11:44;7.40;;;6.70;;
3329;SDS011;1677;49.576;10.990;2023-04-06T15:14:10;7.50;;;6.23;;
3329;SDS011;1677;49.576;10.990;2023-04-06T15:16:36;8.40;;;7.50;;